Etusivu
METAR-TAF:

METAR-TAF

Lentoasemat :

The Dalles, Oregon, Yhdysvallat

Leveyspiiri: 45-37-07N, Pituuspiiri: 121-10-02W, korkeus merenpinnasta: 75 m

Tämänhetkinen sää

Tämä raportti tehtiin 9 minuuttia sitten, kello 05.53 UTC
tyyntä
Lämpötila 16°C
Kosteus 51%
Ilmanpaine 1019 hPa
Näkyvyys: 16.1 km
selkeää

METAR: KDLS 300553Z AUTO 00000KT 10SM CLR 16/06 A3010 RMK AO2 SLP192 T01610056 10300 20150 52015

Aika: 23:02 (06:02 UTC)

Sääennuste

Tämä raportti tehtiin 42 minuuttia sitten, kello 05.20 UTC
Ennuste voimassa 30. päivästä klo 06 UTC - 01. päivään klo 06 UTC
Tuuli 4 kn eri suunnista
Näkyvyys: 10 km
selkeää
From 30. päivästä klo 2200 UTC
Tuuli 8 kn idästä/koillisesta
Näkyvyys: 10 km
selkeää
From 01. päivästä klo 0500 UTC
Tuuli 4 kn eri suunnista
Näkyvyys: 10 km
selkeää

TAF: KDLS 300520Z 3006/0106 VRB04KT P6SM SKC FM302200 06008KT P6SM SKC FM010500 VRB04KT P6SM SKC

Säähavainnot ja -ennusteet yli 4000 lentoasemalta (METAR- ja TAF-raportit).

Käytössä olevat sääasemat on merkitty karttaan keltaisilla ja punaisilla pisteillä.

Aseta hiiri pisteen päälle nähdäksesi sääaseman nimen.

Klikkaa sitten nähdäksesi säähavainnot ja -ennusteet.

Kartan vaihtaminen: klikkaa mustalla rastilla varustettuja vihreitä pisteitä, niin voit zoomata sisään; viivalla varustettua vihreää pistettä, niin voit zoomata ulos tai vihreitä nuolia, niin pääset viereisille kartoille.


METAR-TAF: